Terminal Aerodrome Forecast
Issued by NWS Charleston, WV

Current Version | Previous Version | Graphics & Text | Print | Product List | Glossary On
Versions: 1 2 3 4 5 6 7 8 9 10 11 12 13 14 15 16 17 18 19 20 21 22 23
000
FTUS41 KRLX 160500
TAFPKB
TAF
KPKB 160525Z 1606/1706 00000KT P6SM BKN050 OVC070
     FM161000 34004KT 6SM BR BKN025
     FM161200 01004KT 5SM BR BKN015
     FM161400 34004KT P6SM BKN015
     FM161600 33004KT P6SM BKN025
     FM161700 32004KT P6SM SCT035
     FM162300 34004KT P6SM SCT250=

USA.gov is the U.S. government's official web portal to all federal, state and local government web resources and services.